createdAt,value
2016-12-14T00:00:29.798Z,0
2016-12-14T00:01:29.842Z,0
2016-12-14T00:02:29.917Z,0
2016-12-14T00:03:29.971Z,0
2016-12-14T00:04:30.039Z,0
2016-12-14T00:05:30.094Z,0
2016-12-14T00:06:30.117Z,0
2016-12-14T00:07:30.195Z,0
2016-12-14T00:08:30.224Z,0
2016-12-14T00:09:30.267Z,0
2016-12-14T00:10:30.344Z,0
2016-12-14T00:11:30.407Z,0
2016-12-14T00:12:30.456Z,0
2016-12-14T00:13:30.500Z,0
2016-12-14T00:14:30.580Z,0
2016-12-14T00:15:30.641Z,0
2016-12-14T00:16:30.672Z,0
2016-12-14T00:17:30.729Z,0
2016-12-14T00:18:30.782Z,0
2016-12-14T00:19:30.833Z,0
2016-12-14T00:20:30.907Z,0
2016-12-14T00:21:30.960Z,0
2016-12-14T00:22:31.004Z,0
2016-12-14T00:23:31.099Z,0
2016-12-14T00:24:31.129Z,0
2016-12-14T00:25:31.160Z,0
2016-12-14T00:26:31.221Z,0
2016-12-14T00:27:31.302Z,0
2016-12-14T00:28:31.341Z,0
2016-12-14T00:29:31.409Z,0
2016-12-14T00:30:31.431Z,0
2016-12-14T00:31:31.535Z,0
2016-12-14T00:32:31.565Z,0
2016-12-14T00:33:31.644Z,0
2016-12-14T00:34:31.676Z,0
2016-12-14T00:35:31.732Z,0
2016-12-14T00:36:31.815Z,0
2016-12-14T00:37:31.835Z,0
2016-12-14T00:38:31.888Z,0
2016-12-14T00:39:31.981Z,0
2016-12-14T00:40:32.038Z,0
2016-12-14T00:41:32.074Z,0
2016-12-14T00:42:32.121Z,0
2016-12-14T00:43:32.151Z,0
2016-12-14T00:44:32.219Z,0
2016-12-14T00:45:32.290Z,0
2016-12-14T00:46:32.367Z,0
2016-12-14T00:47:32.420Z,0
2016-12-14T00:48:32.440Z,0
2016-12-14T00:49:32.490Z,0
2016-12-14T00:50:32.572Z,0
2016-12-14T00:51:32.622Z,0
2016-12-14T00:52:32.657Z,0
2016-12-14T00:53:32.756Z,0
2016-12-14T00:54:32.793Z,0
2016-12-14T00:55:32.870Z,0
2016-12-14T00:56:32.921Z,0
2016-12-14T00:57:32.949Z,0
2016-12-14T00:58:33.019Z,0
2016-12-14T00:59:33.070Z,0
2016-12-14T01:00:33.099Z,0
2016-12-14T01:01:33.174Z,0
2016-12-14T01:02:33.248Z,0
2016-12-14T01:03:33.325Z,0
2016-12-14T01:04:33.324Z,0
2016-12-14T01:05:33.395Z,0
2016-12-14T01:06:33.464Z,0
2016-12-14T01:07:33.501Z,0
2016-12-14T01:08:33.569Z,0
2016-12-14T01:09:33.627Z,0
2016-12-14T01:10:33.687Z,0
2016-12-14T01:11:33.746Z,0
2016-12-14T01:12:33.794Z,0
2016-12-14T01:13:33.863Z,0
2016-12-14T01:14:33.889Z,0
2016-12-14T01:15:33.946Z,0
2016-12-14T01:16:34.001Z,0
2016-12-14T01:17:34.075Z,0
2016-12-14T01:18:34.131Z,0
2016-12-14T01:19:34.175Z,0
2016-12-14T01:20:34.243Z,0
2016-12-14T01:21:34.291Z,0
2016-12-14T01:22:34.338Z,0
2016-12-14T01:23:34.396Z,0
2016-12-14T01:24:34.433Z,0
2016-12-14T01:25:34.506Z,0
2016-12-14T01:26:34.584Z,0
2016-12-14T01:27:34.601Z,0
2016-12-14T01:28:34.652Z,0
2016-12-14T01:29:34.706Z,0
2016-12-14T01:30:34.784Z,0
2016-12-14T01:31:34.840Z,0
2016-12-14T01:32:34.905Z,0
2016-12-14T01:33:34.938Z,0
2016-12-14T01:34:35.024Z,0
2016-12-14T01:35:35.059Z,0
2016-12-14T01:36:35.110Z,0
2016-12-14T01:37:35.147Z,0
2016-12-14T01:38:35.211Z,0
2016-12-14T01:39:35.253Z,0
2016-12-14T01:40:35.345Z,0
2016-12-14T01:41:35.405Z,0
2016-12-14T01:42:35.430Z,0
2016-12-14T01:43:35.526Z,0
2016-12-14T01:44:35.544Z,0
2016-12-14T01:45:35.611Z,0
2016-12-14T01:46:35.653Z,0
2016-12-14T01:47:35.732Z,0
2016-12-14T01:48:35.786Z,0
2016-12-14T01:49:35.832Z,0
2016-12-14T01:50:35.863Z,0
2016-12-14T01:51:35.959Z,0
2016-12-14T01:52:35.999Z,0
2016-12-14T01:53:36.079Z,0
2016-12-14T01:54:36.098Z,0
2016-12-14T01:55:36.173Z,0
2016-12-14T01:56:36.210Z,0
2016-12-14T01:57:36.263Z,0
2016-12-14T01:58:36.336Z,0
2016-12-14T01:59:36.398Z,0
2016-12-14T02:00:36.418Z,0
2016-12-14T02:01:36.488Z,0
2016-12-14T02:02:36.540Z,0
2016-12-14T02:03:36.607Z,0
2016-12-14T02:04:36.673Z,0
2016-12-14T02:05:36.745Z,0
2016-12-14T02:06:36.772Z,0
2016-12-14T02:07:36.833Z,0
2016-12-14T02:08:36.911Z,0
2016-12-14T02:09:36.929Z,0
2016-12-14T02:10:37.004Z,0
2016-12-14T02:11:37.053Z,0
2016-12-14T02:12:37.120Z,0
2016-12-14T02:13:37.151Z,0
2016-12-14T02:14:37.200Z,0
2016-12-14T02:15:37.277Z,0
2016-12-14T02:16:37.304Z,0
2016-12-14T02:17:37.375Z,0
2016-12-14T02:18:37.443Z,0
2016-12-14T02:19:37.504Z,0
2016-12-14T02:20:37.551Z,0
2016-12-14T02:21:37.613Z,0
2016-12-14T02:22:37.650Z,0
2016-12-14T02:23:37.708Z,0
2016-12-14T02:24:37.784Z,0
2016-12-14T02:25:37.817Z,0
2016-12-14T02:26:37.896Z,0
2016-12-14T02:27:37.967Z,0
2016-12-14T02:28:37.990Z,0
2016-12-14T02:29:38.058Z,0
2016-12-14T02:30:38.091Z,0
2016-12-14T02:31:38.169Z,0
2016-12-14T02:32:38.203Z,0
2016-12-14T02:33:38.265Z,0
2016-12-14T02:34:38.317Z,0
2016-12-14T02:35:38.408Z,0
2016-12-14T02:36:38.447Z,0
2016-12-14T02:37:38.490Z,0
2016-12-14T02:38:38.542Z,0
2016-12-14T02:39:38.634Z,0
2016-12-14T02:40:38.989Z,0
2016-12-14T02:41:38.707Z,0
2016-12-14T02:42:38.754Z,0
2016-12-14T02:43:38.804Z,0
2016-12-14T02:44:38.885Z,0
2016-12-14T02:45:38.949Z,0
2016-12-14T02:46:39.006Z,0
2016-12-14T02:47:39.048Z,0
2016-12-14T02:48:39.109Z,0
2016-12-14T02:49:39.157Z,0
2016-12-14T02:50:39.185Z,0
2016-12-14T02:51:39.274Z,0
2016-12-14T02:52:39.325Z,0
2016-12-14T02:53:39.364Z,0
2016-12-14T02:54:39.422Z,0
2016-12-14T02:55:39.495Z,0
2016-12-14T02:56:39.588Z,0
2016-12-14T02:57:39.611Z,0
2016-12-14T02:58:39.656Z,0
2016-12-14T02:59:39.709Z,0
2016-12-14T03:00:39.743Z,0
2016-12-14T03:01:39.821Z,0
2016-12-14T03:02:39.862Z,0
2016-12-14T03:03:39.941Z,0
2016-12-14T03:04:40.003Z,0
2016-12-14T03:05:40.028Z,0
2016-12-14T03:06:40.102Z,0
2016-12-14T03:07:40.128Z,0
2016-12-14T03:08:40.231Z,0
2016-12-14T03:09:40.250Z,0
2016-12-14T03:10:40.316Z,0
2016-12-14T03:11:40.367Z,0
2016-12-14T03:12:40.439Z,0
2016-12-14T03:13:40.475Z,0
2016-12-14T03:14:40.533Z,0
2016-12-14T03:15:40.617Z,0
2016-12-14T03:16:40.639Z,0
2016-12-14T03:17:40.716Z,0
2016-12-14T03:18:40.764Z,0
2016-12-14T03:19:40.830Z,0
2016-12-14T03:20:40.880Z,0
2016-12-14T03:21:40.936Z,0
2016-12-14T03:22:40.976Z,0
2016-12-14T03:23:41.049Z,0
2016-12-14T03:24:41.095Z,0
2016-12-14T03:25:41.141Z,0
2016-12-14T03:26:41.207Z,0
2016-12-14T03:27:41.277Z,0
2016-12-14T03:28:41.326Z,0
2016-12-14T03:29:41.378Z,0
2016-12-14T03:30:41.432Z,0
2016-12-14T03:31:41.471Z,0
2016-12-14T03:32:41.522Z,0
2016-12-14T03:33:41.594Z,0
2016-12-14T03:34:41.653Z,0
2016-12-14T03:35:41.718Z,0
2016-12-14T03:36:41.757Z,0
2016-12-14T03:37:41.824Z,0
2016-12-14T03:38:41.868Z,0
2016-12-14T03:39:41.927Z,0
2016-12-14T03:40:41.993Z,0
2016-12-14T03:41:42.019Z,0
2016-12-14T03:42:42.107Z,0
2016-12-14T03:43:42.167Z,0
2016-12-14T03:44:42.187Z,0
2016-12-14T03:45:42.256Z,0
2016-12-14T03:46:42.327Z,0
2016-12-14T03:47:42.371Z,0
2016-12-14T03:48:42.421Z,0
2016-12-14T03:49:42.499Z,0
2016-12-14T03:50:42.537Z,0
2016-12-14T03:51:42.579Z,0
2016-12-14T03:52:42.657Z,0
2016-12-14T03:53:42.695Z,0
2016-12-14T03:54:42.751Z,0
2016-12-14T03:55:42.801Z,0
2016-12-14T03:56:42.867Z,0
2016-12-14T03:57:42.923Z,0
2016-12-14T03:58:42.969Z,0
2016-12-14T03:59:43.020Z,0
2016-12-14T04:00:43.076Z,0
2016-12-14T04:01:43.159Z,0
2016-12-14T04:02:43.166Z,0
2016-12-14T04:03:43.248Z,0
2016-12-14T04:04:43.292Z,0
2016-12-14T04:05:43.361Z,0
2016-12-14T04:06:43.402Z,0
2016-12-14T04:07:43.466Z,0
2016-12-14T04:08:43.505Z,0
2016-12-14T04:09:43.583Z,0
2016-12-14T04:10:43.642Z,0
2016-12-14T04:11:43.694Z,0
2016-12-14T04:12:43.767Z,0
2016-12-14T04:13:43.819Z,0
2016-12-14T04:14:43.855Z,0
2016-12-14T04:15:43.930Z,0
2016-12-14T04:16:43.984Z,0
2016-12-14T04:17:44.030Z,0
2016-12-14T04:18:44.065Z,0
2016-12-14T04:19:44.135Z,0
2016-12-14T04:20:44.174Z,0
2016-12-14T04:21:44.262Z,0
2016-12-14T04:22:44.313Z,0
2016-12-14T04:23:44.340Z,0
2016-12-14T04:24:44.401Z,0
2016-12-14T04:25:44.451Z,0
2016-12-14T04:26:44.543Z,0
2016-12-14T04:27:44.584Z,0
2016-12-14T04:28:44.629Z,0
2016-12-14T04:29:44.683Z,0
2016-12-14T04:30:44.731Z,0
2016-12-14T04:31:44.785Z,0
2016-12-14T04:32:45.196Z,0
2016-12-14T04:33:44.892Z,0
2016-12-14T04:34:44.957Z,0
2016-12-14T04:35:45.035Z,0
2016-12-14T04:36:45.101Z,0
2016-12-14T04:37:45.130Z,0
2016-12-14T04:38:45.200Z,0
2016-12-14T04:39:45.246Z,0
2016-12-14T04:40:45.304Z,0
2016-12-14T04:41:45.381Z,0
2016-12-14T04:42:45.437Z,0
2016-12-14T04:43:45.441Z,0
2016-12-14T04:44:45.520Z,0
2016-12-14T04:45:45.574Z,0
2016-12-14T04:46:45.635Z,0
2016-12-14T04:47:45.978Z,0
2016-12-14T04:48:45.736Z,0
2016-12-14T04:49:45.800Z,0
2016-12-14T04:50:45.826Z,0
2016-12-14T04:51:45.886Z,0
2016-12-14T04:52:45.964Z,0
2016-12-14T04:53:46.029Z,0
2016-12-14T04:54:46.070Z,0
2016-12-14T04:55:46.135Z,0
2016-12-14T04:56:46.169Z,0
2016-12-14T04:57:46.233Z,0
2016-12-14T04:58:46.294Z,0
2016-12-14T04:59:46.358Z,0
2016-12-14T05:00:46.412Z,0
2016-12-14T05:01:46.487Z,0
2016-12-14T05:02:46.514Z,0
2016-12-14T05:03:46.566Z,0
2016-12-14T05:04:46.632Z,0
2016-12-14T05:05:46.711Z,0
2016-12-14T05:06:46.749Z,0
2016-12-14T05:07:46.806Z,0
2016-12-14T05:08:46.838Z,0
2016-12-14T05:09:46.908Z,0
2016-12-14T05:10:46.957Z,0
2016-12-14T05:11:47.010Z,0
2016-12-14T05:12:47.078Z,0
2016-12-14T05:13:47.127Z,0
2016-12-14T05:14:47.201Z,0
2016-12-14T05:15:47.265Z,0
2016-12-14T05:16:47.294Z,0
2016-12-14T05:17:47.350Z,0
2016-12-14T05:18:47.731Z,0
2016-12-14T05:19:47.440Z,0
2016-12-14T05:20:47.532Z,0
2016-12-14T05:21:47.566Z,0
2016-12-14T05:22:47.617Z,0
2016-12-14T05:23:47.692Z,0
2016-12-14T05:24:47.740Z,0
2016-12-14T05:25:47.801Z,0
2016-12-14T05:26:47.868Z,0
2016-12-14T05:27:47.916Z,0
2016-12-14T05:28:47.980Z,0
2016-12-14T05:29:48.028Z,0
2016-12-14T05:30:48.071Z,0
2016-12-14T05:31:48.133Z,0
2016-12-14T05:32:48.197Z,0
2016-12-14T05:33:48.247Z,0
2016-12-14T05:34:48.284Z,0
2016-12-14T05:35:48.376Z,0
2016-12-14T05:36:48.413Z,0
2016-12-14T05:37:48.455Z,0
2016-12-14T05:38:48.505Z,0
2016-12-14T05:39:48.567Z,0
2016-12-14T05:40:48.932Z,0
2016-12-14T05:41:48.668Z,0
2016-12-14T05:42:48.727Z,0
2016-12-14T05:43:48.783Z,0
2016-12-14T05:44:48.851Z,0
2016-12-14T05:45:48.904Z,0
2016-12-14T05:46:48.942Z,0
2016-12-14T05:47:49.006Z,0
2016-12-14T05:48:49.061Z,0
2016-12-14T05:49:49.149Z,0
2016-12-14T05:50:49.204Z,0
2016-12-14T05:51:49.235Z,0
2016-12-14T05:52:49.303Z,0
2016-12-14T05:53:49.358Z,0
2016-12-14T05:54:49.409Z,0
2016-12-14T05:55:49.456Z,0
2016-12-14T05:56:49.506Z,0
2016-12-14T05:57:49.546Z,0
2016-12-14T05:58:49.655Z,0
2016-12-14T05:59:49.693Z,0
2016-12-14T06:00:49.737Z,0
2016-12-14T06:01:49.790Z,0
2016-12-14T06:02:49.880Z,0
2016-12-14T06:03:50.206Z,0
2016-12-14T06:04:49.951Z,0
2016-12-14T06:05:50.011Z,0
2016-12-14T06:06:50.061Z,0
2016-12-14T06:07:50.135Z,0
2016-12-14T06:08:50.193Z,0
2016-12-14T06:09:50.258Z,0
2016-12-14T06:10:50.286Z,0
2016-12-14T06:11:50.357Z,0
2016-12-14T06:12:50.415Z,0
2016-12-14T06:13:50.486Z,0
2016-12-14T06:14:50.495Z,0
2016-12-14T06:15:50.595Z,0
2016-12-14T06:16:50.625Z,0
2016-12-14T06:17:50.692Z,0
2016-12-14T06:18:50.750Z,0
2016-12-14T06:19:50.804Z,0
2016-12-14T06:20:50.852Z,0
2016-12-14T06:21:50.904Z,0
2016-12-14T06:22:50.967Z,0
2016-12-14T06:23:50.996Z,0
2016-12-14T06:24:51.093Z,0
2016-12-14T06:25:51.138Z,0
2016-12-14T06:26:51.186Z,0
2016-12-14T06:27:51.259Z,0
2016-12-14T06:28:51.310Z,0
2016-12-14T06:29:51.351Z,0
2016-12-14T06:30:51.418Z,0
2016-12-14T06:31:51.493Z,0
2016-12-14T06:32:51.529Z,0
2016-12-14T06:33:51.553Z,0
2016-12-14T06:34:51.634Z,0
2016-12-14T06:35:51.685Z,0
2016-12-14T06:36:51.732Z,0
2016-12-14T06:37:51.821Z,0
2016-12-14T06:38:51.843Z,0
2016-12-14T06:39:51.896Z,0
2016-12-14T06:40:51.972Z,0
2016-12-14T06:41:52.055Z,0
2016-12-14T06:42:52.087Z,0
2016-12-14T06:43:52.145Z,0
2016-12-14T06:44:52.188Z,0
2016-12-14T06:45:52.242Z,0
2016-12-14T06:46:52.300Z,0
2016-12-14T06:47:52.359Z,0
2016-12-14T06:48:52.416Z,0
2016-12-14T06:49:52.441Z,0
2016-12-14T06:50:52.523Z,0
2016-12-14T06:51:52.588Z,0
2016-12-14T06:52:52.631Z,0
2016-12-14T06:53:52.688Z,0
2016-12-14T06:54:52.744Z,0
2016-12-14T06:55:52.779Z,0
2016-12-14T06:56:52.847Z,0
2016-12-14T06:57:52.917Z,0
2016-12-14T06:58:52.955Z,0
2016-12-14T06:59:53.021Z,0
2016-12-14T07:00:53.081Z,0
2016-12-14T07:01:53.126Z,0
2016-12-14T07:02:53.216Z,0
2016-12-14T07:03:53.252Z,0
2016-12-14T07:04:53.310Z,0
2016-12-14T07:05:53.348Z,0
2016-12-14T07:06:53.413Z,0
2016-12-14T07:07:53.471Z,0
2016-12-14T07:08:53.580Z,0
2016-12-14T07:09:53.608Z,0
2016-12-14T07:10:53.636Z,0
2016-12-14T07:11:53.679Z,0
2016-12-14T07:12:53.739Z,0
2016-12-14T07:13:53.804Z,0
2016-12-14T07:14:53.844Z,0
2016-12-14T07:15:53.889Z,0
2016-12-14T07:16:53.947Z,0
2016-12-14T07:17:54.047Z,0
2016-12-14T07:18:54.065Z,0
2016-12-14T07:19:54.166Z,0
2016-12-14T07:20:54.180Z,0
2016-12-14T07:21:54.240Z,0
2016-12-14T07:22:54.289Z,0
2016-12-14T07:23:54.363Z,0
2016-12-14T07:24:54.426Z,0
2016-12-14T07:25:54.473Z,0
2016-12-14T07:26:54.500Z,0
2016-12-14T07:27:54.585Z,0
2016-12-14T07:28:54.656Z,0
2016-12-14T07:29:54.732Z,0
2016-12-14T07:30:54.754Z,0
2016-12-14T07:31:54.814Z,0
2016-12-14T07:32:54.864Z,0
2016-12-14T07:33:54.916Z,0
2016-12-14T07:34:55.011Z,0
2016-12-14T07:35:55.038Z,0
2016-12-14T07:36:55.078Z,0
2016-12-14T07:37:55.138Z,0
2016-12-14T07:38:55.183Z,0
2016-12-14T07:39:55.220Z,0
2016-12-14T07:40:55.286Z,0
2016-12-14T07:41:55.353Z,0
2016-12-14T07:42:55.398Z,0
2016-12-14T07:43:55.456Z,0
2016-12-14T07:44:55.524Z,0
2016-12-14T07:45:55.578Z,0
2016-12-14T07:46:55.635Z,0
2016-12-14T07:47:55.694Z,0
2016-12-14T07:48:56.037Z,0
2016-12-14T07:49:55.783Z,0
2016-12-14T07:50:55.836Z,5
2016-12-14T07:51:55.911Z,5
2016-12-14T07:52:55.945Z,5
2016-12-14T07:53:56.013Z,5
2016-12-14T07:54:56.069Z,5
2016-12-14T07:55:56.128Z,5
2016-12-14T07:56:56.209Z,5
2016-12-14T07:57:56.231Z,5
2016-12-14T07:58:56.305Z,5
2016-12-14T07:59:56.378Z,5
2016-12-14T08:00:56.421Z,5
2016-12-14T08:01:56.446Z,5
2016-12-14T08:02:56.507Z,5
2016-12-14T08:03:56.586Z,5
2016-12-14T08:04:56.639Z,5
2016-12-14T08:05:56.667Z,5
2016-12-14T08:06:56.729Z,10
2016-12-14T08:07:56.845Z,10
2016-12-14T08:08:57.089Z,10
2016-12-14T08:09:56.899Z,10
2016-12-14T08:10:57.021Z,10
2016-12-14T08:11:57.001Z,10
2016-12-14T08:12:57.080Z,15
2016-12-14T08:13:57.163Z,15
2016-12-14T08:14:57.193Z,15
2016-12-14T08:15:57.263Z,10
2016-12-14T08:16:57.285Z,15
2016-12-14T08:17:57.355Z,10
2016-12-14T08:18:57.707Z,10
2016-12-14T08:19:57.506Z,15
2016-12-14T08:20:57.499Z,15
2016-12-14T08:21:57.550Z,10
2016-12-14T08:22:57.643Z,10
2016-12-14T08:23:57.704Z,15
2016-12-14T08:24:57.749Z,15
2016-12-14T08:25:57.802Z,10
2016-12-14T08:26:57.845Z,10
2016-12-14T08:27:57.880Z,10
2016-12-14T08:28:57.960Z,10
2016-12-14T08:29:57.995Z,10
2016-12-14T08:30:58.082Z,10
2016-12-14T08:31:58.118Z,15
2016-12-14T08:32:58.178Z,10
2016-12-14T08:33:58.251Z,15
2016-12-14T08:34:58.318Z,10
2016-12-14T08:35:58.377Z,10
2016-12-14T08:36:58.580Z,15
2016-12-14T08:37:58.470Z,25
2016-12-14T08:38:58.504Z,10
2016-12-14T08:39:58.581Z,15
2016-12-14T08:40:58.651Z,15
2016-12-14T08:41:58.671Z,15
2016-12-14T08:42:58.748Z,15
2016-12-14T08:43:58.798Z,15
2016-12-14T08:44:58.858Z,15
2016-12-14T08:45:58.931Z,15
2016-12-14T08:46:58.980Z,15
2016-12-14T08:47:59.002Z,15
2016-12-14T08:48:59.076Z,20
2016-12-14T08:49:59.136Z,20
2016-12-14T08:50:59.176Z,20
2016-12-14T08:51:59.228Z,20
2016-12-14T08:52:59.297Z,10
2016-12-14T08:53:59.342Z,15
2016-12-14T08:54:59.417Z,20
2016-12-14T08:55:59.461Z,20
2016-12-14T08:56:59.516Z,20
2016-12-14T08:57:59.580Z,20
2016-12-14T08:58:59.638Z,20
2016-12-14T08:59:59.676Z,20
2016-12-14T09:00:59.747Z,15
2016-12-14T09:02:00.142Z,20
2016-12-14T09:02:59.870Z,20
2016-12-14T09:03:59.917Z,25
2016-12-14T09:05:00.175Z,25
2016-12-14T09:06:00.238Z,25
2016-12-14T09:07:00.075Z,15
2016-12-14T09:08:00.114Z,20
2016-12-14T09:09:00.197Z,25
2016-12-14T09:10:00.256Z,25
2016-12-14T09:11:00.617Z,25
2016-12-14T09:12:00.338Z,25
2016-12-14T09:13:00.423Z,30
2016-12-14T09:14:00.485Z,30
2016-12-14T09:15:00.527Z,30
2016-12-14T09:16:00.582Z,30
2016-12-14T09:17:00.631Z,30
2016-12-14T09:18:00.664Z,30
2016-12-14T09:19:01.217Z,25
2016-12-14T09:20:00.797Z,20
2016-12-14T09:21:00.848Z,20
2016-12-14T09:22:00.949Z,20
2016-12-14T09:23:00.974Z,20
2016-12-14T09:24:01.027Z,20
2016-12-14T09:25:01.086Z,25
2016-12-14T09:26:01.194Z,25
2016-12-14T09:27:01.172Z,25
2016-12-14T09:28:01.263Z,30
2016-12-14T09:29:01.279Z,30
2016-12-14T09:30:01.361Z,30
2016-12-14T09:31:01.418Z,30
2016-12-14T09:32:01.454Z,30
2016-12-14T09:33:01.744Z,30
2016-12-14T09:34:01.808Z,20
2016-12-14T09:35:01.633Z,20
2016-12-14T09:36:01.676Z,20
2016-12-14T09:37:01.751Z,25
2016-12-14T09:38:01.801Z,30
2016-12-14T09:39:01.847Z,40
2016-12-14T09:40:01.904Z,30
2016-12-14T09:41:01.958Z,35
2016-12-14T09:42:02.031Z,30
2016-12-14T09:43:02.086Z,30
2016-12-14T09:44:02.142Z,25
2016-12-14T09:45:02.172Z,10
2016-12-14T09:46:02.255Z,10
2016-12-14T09:47:02.319Z,15
2016-12-14T09:48:02.338Z,15
2016-12-14T09:49:02.432Z,10
2016-12-14T09:50:02.463Z,20
2016-12-14T09:51:02.504Z,15
2016-12-14T09:52:02.610Z,15
2016-12-14T09:53:02.643Z,15
2016-12-14T09:54:02.692Z,20
2016-12-14T09:55:02.757Z,25
2016-12-14T09:56:02.803Z,30
2016-12-14T09:57:02.881Z,25
2016-12-14T09:58:03.129Z,30
2016-12-14T09:59:03.303Z,20
2016-12-14T10:00:03.013Z,25
2016-12-14T10:01:03.064Z,30
2016-12-14T10:02:03.328Z,35
2016-12-14T10:03:03.188Z,40
2016-12-14T10:04:03.255Z,40
2016-12-14T10:05:03.320Z,35
2016-12-14T10:06:03.381Z,40
2016-12-14T10:07:03.439Z,35
2016-12-14T10:08:03.454Z,35
2016-12-14T10:09:03.531Z,30
2016-12-14T10:10:03.573Z,30
2016-12-14T10:11:03.643Z,35
2016-12-14T10:12:03.696Z,45
2016-12-14T10:13:03.786Z,35
2016-12-14T10:14:03.808Z,40
2016-12-14T10:15:03.868Z,40
2016-12-14T10:16:03.904Z,45
2016-12-14T10:17:03.981Z,35
2016-12-14T10:18:04.322Z,35
2016-12-14T10:19:04.107Z,25
2016-12-14T10:20:04.141Z,35
2016-12-14T10:21:04.214Z,35
2016-12-14T10:22:04.318Z,30
2016-12-14T10:23:04.307Z,45
2016-12-14T10:24:04.364Z,50
2016-12-14T10:25:04.417Z,40
2016-12-14T10:26:04.513Z,45
2016-12-14T10:27:04.537Z,50
2016-12-14T10:28:04.601Z,60
2016-12-14T10:29:04.662Z,60
2016-12-14T10:30:04.913Z,55
2016-12-14T10:31:04.992Z,65
2016-12-14T10:32:04.807Z,60
2016-12-14T10:33:04.869Z,50
2016-12-14T10:34:04.936Z,40
2016-12-14T10:35:05.008Z,40
2016-12-14T10:36:05.052Z,30
2016-12-14T10:37:05.117Z,35
2016-12-14T10:38:05.136Z,40
2016-12-14T10:39:05.228Z,35
2016-12-14T10:40:05.279Z,35
2016-12-14T10:41:05.340Z,30
2016-12-14T10:42:05.402Z,35
2016-12-14T10:43:05.440Z,40
2016-12-14T10:44:05.514Z,35
2016-12-14T10:45:05.552Z,40
2016-12-14T10:46:05.631Z,45
2016-12-14T10:47:05.677Z,35
2016-12-14T10:48:05.712Z,35
2016-12-14T10:49:05.824Z,35
2016-12-14T10:50:05.837Z,40
2016-12-14T10:51:05.907Z,35
2016-12-14T10:52:05.935Z,35
2016-12-14T10:53:05.979Z,35
2016-12-14T10:54:06.087Z,30
2016-12-14T10:55:06.100Z,30
2016-12-14T10:56:06.178Z,30
2016-12-14T10:57:06.231Z,30
2016-12-14T10:58:06.274Z,35
2016-12-14T10:59:06.333Z,35
2016-12-14T11:00:06.403Z,35
2016-12-14T11:01:06.475Z,40
2016-12-14T11:02:06.517Z,40
2016-12-14T11:03:06.571Z,35
2016-12-14T11:04:06.614Z,40
2016-12-14T11:05:06.694Z,40
2016-12-14T11:06:06.719Z,35
2016-12-14T11:07:06.775Z,35
2016-12-14T11:08:06.869Z,35
2016-12-14T11:09:06.912Z,35
2016-12-14T11:10:07.246Z,35
2016-12-14T11:11:07.009Z,40
2016-12-14T11:12:07.365Z,35
2016-12-14T11:13:07.126Z,35
2016-12-14T11:14:07.193Z,35
2016-12-14T11:15:07.248Z,30
2016-12-14T11:16:07.315Z,40
2016-12-14T11:17:07.374Z,45
2016-12-14T11:18:07.427Z,35
2016-12-14T11:19:07.496Z,40
2016-12-14T11:20:07.538Z,30
2016-12-14T11:21:07.589Z,40
2016-12-14T11:22:07.677Z,40
2016-12-14T11:23:07.694Z,40
2016-12-14T11:24:07.741Z,40
2016-12-14T11:25:07.812Z,50
2016-12-14T11:26:07.862Z,50
2016-12-14T11:27:08.224Z,45
2016-12-14T11:28:07.989Z,40
2016-12-14T11:29:08.034Z,45
2016-12-14T11:30:08.094Z,40
2016-12-14T11:31:08.157Z,30
2016-12-14T11:32:08.492Z,35
2016-12-14T11:33:08.255Z,30
2016-12-14T11:34:08.312Z,30
2016-12-14T11:35:08.443Z,35
2016-12-14T11:36:08.433Z,30
2016-12-14T11:37:08.477Z,40
2016-12-14T11:38:08.512Z,30
2016-12-14T11:39:08.601Z,35
2016-12-14T11:40:08.628Z,40
2016-12-14T11:41:08.727Z,35
2016-12-14T11:42:08.802Z,45
2016-12-14T11:43:08.816Z,40
2016-12-14T11:44:08.860Z,45
2016-12-14T11:45:08.936Z,40
2016-12-14T11:46:09.006Z,40
2016-12-14T11:47:09.051Z,35
2016-12-14T11:48:09.083Z,35
2016-12-14T11:49:09.164Z,25
2016-12-14T11:50:09.228Z,30
2016-12-14T11:51:09.258Z,35
2016-12-14T11:52:09.318Z,30
2016-12-14T11:53:09.717Z,30
2016-12-14T11:54:09.449Z,30
2016-12-14T11:55:09.499Z,30
2016-12-14T11:56:09.548Z,30
2016-12-14T11:57:09.602Z,30
2016-12-14T11:58:09.661Z,30
2016-12-14T11:59:09.731Z,30
2016-12-14T12:00:09.780Z,30
2016-12-14T12:01:09.820Z,30
2016-12-14T12:02:09.863Z,30
2016-12-14T12:03:09.923Z,30
2016-12-14T12:04:09.977Z,30
2016-12-14T12:05:10.037Z,30
2016-12-14T12:06:10.089Z,30
2016-12-14T12:07:10.149Z,30
2016-12-14T12:08:10.201Z,30
2016-12-14T12:09:10.259Z,30
2016-12-14T12:10:10.331Z,30
2016-12-14T12:11:10.374Z,30
2016-12-14T12:12:10.428Z,30
2016-12-14T12:13:10.488Z,30
2016-12-14T12:14:10.544Z,30
2016-12-14T12:15:10.602Z,30
2016-12-14T12:16:10.656Z,30
2016-12-14T12:17:10.714Z,30
2016-12-14T12:18:10.770Z,30
2016-12-14T12:19:10.829Z,30
2016-12-14T12:20:10.886Z,30
2016-12-14T12:21:11.269Z,30
2016-12-14T12:22:10.996Z,30
2016-12-14T12:23:11.052Z,30
2016-12-14T12:24:11.113Z,30
2016-12-14T12:25:11.178Z,30
2016-12-14T12:26:11.222Z,30
2016-12-14T12:27:11.287Z,30
2016-12-14T12:28:11.343Z,30
2016-12-14T12:29:11.395Z,30
2016-12-14T12:30:11.454Z,30
2016-12-14T12:31:11.508Z,30
2016-12-14T12:32:11.565Z,30
2016-12-14T12:33:11.623Z,30
2016-12-14T12:34:11.682Z,30
2016-12-14T12:35:11.737Z,30
2016-12-14T12:36:11.800Z,30
2016-12-14T12:37:11.845Z,35
2016-12-14T12:38:11.918Z,35
2016-12-14T12:39:11.960Z,35
2016-12-14T12:40:12.017Z,35
2016-12-14T12:41:12.072Z,35
2016-12-14T12:42:12.129Z,35
2016-12-14T12:43:12.189Z,35
2016-12-14T12:44:12.244Z,30
2016-12-14T12:45:12.299Z,30
2016-12-14T12:46:12.354Z,30
2016-12-14T12:47:12.419Z,30
2016-12-14T12:48:12.502Z,30
2016-12-14T12:49:12.524Z,30
2016-12-14T12:50:12.587Z,30
2016-12-14T12:51:12.640Z,30
2016-12-14T12:52:12.696Z,30
2016-12-14T12:53:12.765Z,30
2016-12-14T12:54:12.803Z,30
2016-12-14T12:55:12.869Z,30
2016-12-14T12:56:12.925Z,30
2016-12-14T12:57:12.975Z,30
2016-12-14T12:58:13.033Z,30
2016-12-14T12:59:13.088Z,30
2016-12-14T13:00:13.145Z,30
2016-12-14T13:01:13.207Z,30
2016-12-14T13:02:13.256Z,30
2016-12-14T13:03:13.315Z,30
2016-12-14T13:04:13.375Z,30
2016-12-14T13:05:13.431Z,30
2016-12-14T13:06:13.485Z,30
2016-12-14T13:07:13.542Z,25
2016-12-14T13:08:13.598Z,25
2016-12-14T13:09:13.658Z,25
2016-12-14T13:10:13.710Z,25
2016-12-14T13:11:13.767Z,25
2016-12-14T13:12:13.879Z,25
2016-12-14T13:13:13.878Z,25
2016-12-14T13:14:13.937Z,25
2016-12-14T13:15:13.994Z,25
2016-12-14T13:16:14.049Z,25
2016-12-14T13:17:14.112Z,25
2016-12-14T13:18:14.162Z,25
2016-12-14T13:19:14.217Z,25
2016-12-14T13:20:14.278Z,25
2016-12-14T13:21:14.349Z,25
2016-12-14T13:22:14.395Z,25
2016-12-14T13:23:14.450Z,25
2016-12-14T13:24:14.502Z,25
2016-12-14T13:25:14.563Z,25
2016-12-14T13:26:14.620Z,25
2016-12-14T13:27:14.674Z,25
2016-12-14T13:28:14.729Z,25
2016-12-14T13:29:14.787Z,25
2016-12-14T13:30:14.852Z,25
2016-12-14T13:31:14.902Z,25
2016-12-14T13:32:14.962Z,25
2016-12-14T13:33:15.016Z,25
2016-12-14T13:34:15.079Z,25
2016-12-14T13:35:15.127Z,25
2016-12-14T13:36:15.187Z,20
2016-12-14T13:37:15.246Z,20
2016-12-14T13:38:15.307Z,20
2016-12-14T13:39:15.356Z,20
2016-12-14T13:40:15.412Z,20
2016-12-14T13:41:15.473Z,20
2016-12-14T13:42:15.533Z,20
2016-12-14T13:43:15.587Z,20
2016-12-14T13:44:15.640Z,20
2016-12-14T13:45:15.703Z,20
2016-12-14T13:46:15.767Z,20
2016-12-14T13:47:15.820Z,20
2016-12-14T13:48:15.872Z,20
2016-12-14T13:49:15.927Z,20
2016-12-14T13:50:15.987Z,20
2016-12-14T13:51:16.047Z,20
2016-12-14T13:52:16.100Z,20
2016-12-14T13:53:16.158Z,20
2016-12-14T13:54:16.216Z,20
2016-12-14T13:55:16.280Z,15
2016-12-14T13:56:16.334Z,15
2016-12-14T13:57:16.382Z,10
2016-12-14T13:58:16.443Z,5
2016-12-14T13:59:16.502Z,5
2016-12-14T14:00:16.557Z,5
2016-12-14T14:01:16.935Z,5
2016-12-14T14:02:16.671Z,5
2016-12-14T14:03:16.730Z,5
2016-12-14T14:04:16.788Z,5
2016-12-14T14:05:16.845Z,5
2016-12-14T14:06:16.900Z,5
2016-12-14T14:07:16.963Z,5
2016-12-14T14:08:17.012Z,5
2016-12-14T14:09:17.071Z,5
2016-12-14T14:10:17.126Z,5
2016-12-14T14:11:17.186Z,5
2016-12-14T14:12:17.242Z,0
2016-12-14T14:13:17.300Z,0
2016-12-14T14:14:17.358Z,0
2016-12-14T14:15:17.420Z,0
2016-12-14T14:16:17.470Z,0
2016-12-14T14:17:17.534Z,0
2016-12-14T14:18:17.584Z,0
2016-12-14T14:19:17.640Z,0
2016-12-14T14:20:17.708Z,0
2016-12-14T14:21:17.754Z,0
2016-12-14T14:22:17.807Z,0
2016-12-14T14:23:17.869Z,0
2016-12-14T14:24:18.234Z,0
2016-12-14T14:25:17.986Z,0
2016-12-14T14:26:18.038Z,0
2016-12-14T14:27:18.095Z,0
2016-12-14T14:28:18.151Z,0
2016-12-14T14:29:18.207Z,0
2016-12-14T14:30:18.267Z,0
2016-12-14T14:31:18.323Z,0
2016-12-14T14:32:18.404Z,0
2016-12-14T14:33:18.436Z,0
2016-12-14T14:34:18.497Z,0
2016-12-14T14:35:18.547Z,0